sensor_id;sensor_type;location;lat;lon;timestamp;P1;durP1;ratioP1;P2;durP2;ratioP2
15273;SDS011;7738;49.532;11.156;2022-12-29T00:01:17;1.67;;;0.68;;
15273;SDS011;7738;49.532;11.156;2022-12-29T00:03:50;1.83;;;0.80;;
15273;SDS011;7738;49.532;11.156;2022-12-29T00:06:20;2.13;;;0.90;;
15273;SDS011;7738;49.532;11.156;2022-12-29T00:08:50;3.80;;;0.93;;
15273;SDS011;7738;49.532;11.156;2022-12-29T00:11:21;1.42;;;0.75;;
15273;SDS011;7738;49.532;11.156;2022-12-29T00:13:52;1.85;;;0.77;;
15273;SDS011;7738;49.532;11.156;2022-12-29T00:16:35;0.95;;;0.50;;
15273;SDS011;7738;49.532;11.156;2022-12-29T00:19:08;1.25;;;0.77;;
15273;SDS011;7738;49.532;11.156;2022-12-29T00:21:59;2.17;;;1.20;;
15273;SDS011;7738;49.532;11.156;2022-12-29T00:24:43;1.77;;;0.90;;
15273;SDS011;7738;49.532;11.156;2022-12-29T00:27:26;1.48;;;0.70;;
15273;SDS011;7738;49.532;11.156;2022-12-29T00:30:11;1.10;;;0.63;;
15273;SDS011;7738;49.532;11.156;2022-12-29T00:32:55;2.50;;;0.57;;
15273;SDS011;7738;49.532;11.156;2022-12-29T00:35:42;1.13;;;0.80;;
15273;SDS011;7738;49.532;11.156;2022-12-29T00:38:15;1.02;;;0.60;;
15273;SDS011;7738;49.532;11.156;2022-12-29T00:40:58;1.02;;;0.57;;
15273;SDS011;7738;49.532;11.156;2022-12-29T00:43:40;1.25;;;0.88;;
15273;SDS011;7738;49.532;11.156;2022-12-29T00:46:23;0.95;;;0.40;;
15273;SDS011;7738;49.532;11.156;2022-12-29T00:48:54;1.30;;;0.60;;
15273;SDS011;7738;49.532;11.156;2022-12-29T00:51:39;1.70;;;0.77;;
15273;SDS011;7738;49.532;11.156;2022-12-29T00:54:09;1.25;;;0.57;;
15273;SDS011;7738;49.532;11.156;2022-12-29T00:56:40;2.55;;;0.80;;
15273;SDS011;7738;49.532;11.156;2022-12-29T00:59:10;3.95;;;0.77;;
15273;SDS011;7738;49.532;11.156;2022-12-29T01:01:40;1.95;;;0.80;;
15273;SDS011;7738;49.532;11.156;2022-12-29T01:04:11;3.97;;;0.80;;
15273;SDS011;7738;49.532;11.156;2022-12-29T01:06:46;1.63;;;0.70;;
15273;SDS011;7738;49.532;11.156;2022-12-29T01:09:17;1.45;;;0.65;;
15273;SDS011;7738;49.532;11.156;2022-12-29T01:12:00;0.93;;;0.55;;
15273;SDS011;7738;49.532;11.156;2022-12-29T01:14:30;1.60;;;0.70;;
15273;SDS011;7738;49.532;11.156;2022-12-29T01:17:00;2.85;;;0.70;;
15273;SDS011;7738;49.532;11.156;2022-12-29T01:19:31;2.05;;;1.08;;
15273;SDS011;7738;49.532;11.156;2022-12-29T01:22:04;1.42;;;0.90;;
15273;SDS011;7738;49.532;11.156;2022-12-29T01:24:34;2.53;;;0.77;;
15273;SDS011;7738;49.532;11.156;2022-12-29T01:27:04;1.92;;;0.85;;
15273;SDS011;7738;49.532;11.156;2022-12-29T01:29:34;1.70;;;0.60;;
15273;SDS011;7738;49.532;11.156;2022-12-29T01:32:05;1.67;;;0.70;;
15273;SDS011;7738;49.532;11.156;2022-12-29T01:34:37;4.03;;;0.98;;
15273;SDS011;7738;49.532;11.156;2022-12-29T01:37:10;1.70;;;0.88;;
15273;SDS011;7738;49.532;11.156;2022-12-29T01:39:40;2.03;;;0.90;;
15273;SDS011;7738;49.532;11.156;2022-12-29T01:42:12;1.35;;;0.57;;
15273;SDS011;7738;49.532;11.156;2022-12-29T01:44:50;1.88;;;0.80;;
15273;SDS011;7738;49.532;11.156;2022-12-29T01:47:24;2.78;;;0.80;;
15273;SDS011;7738;49.532;11.156;2022-12-29T01:50:02;1.98;;;0.88;;
15273;SDS011;7738;49.532;11.156;2022-12-29T01:52:40;0.88;;;0.47;;
15273;SDS011;7738;49.532;11.156;2022-12-29T01:55:13;2.13;;;0.73;;
15273;SDS011;7738;49.532;11.156;2022-12-29T01:57:46;1.10;;;0.60;;
15273;SDS011;7738;49.532;11.156;2022-12-29T02:00:20;0.65;;;0.47;;
15273;SDS011;7738;49.532;11.156;2022-12-29T02:02:51;5.10;;;0.60;;
15273;SDS011;7738;49.532;11.156;2022-12-29T02:05:24;2.13;;;0.60;;
15273;SDS011;7738;49.532;11.156;2022-12-29T02:07:59;1.25;;;0.65;;
15273;SDS011;7738;49.532;11.156;2022-12-29T02:10:33;3.25;;;0.80;;
15273;SDS011;7738;49.532;11.156;2022-12-29T02:13:05;4.40;;;0.75;;
15273;SDS011;7738;49.532;11.156;2022-12-29T02:15:40;1.60;;;0.52;;
15273;SDS011;7738;49.532;11.156;2022-12-29T02:18:25;1.63;;;0.80;;
15273;SDS011;7738;49.532;11.156;2022-12-29T02:21:12;1.63;;;0.77;;
15273;SDS011;7738;49.532;11.156;2022-12-29T02:24:28;1.60;;;0.70;;
15273;SDS011;7738;49.532;11.156;2022-12-29T02:27:24;1.88;;;0.65;;
15273;SDS011;7738;49.532;11.156;2022-12-29T02:33:10;1.55;;;0.55;;
15273;SDS011;7738;49.532;11.156;2022-12-29T02:35:52;0.93;;;0.65;;
15273;SDS011;7738;49.532;11.156;2022-12-29T02:38:34;1.38;;;0.70;;
15273;SDS011;7738;49.532;11.156;2022-12-29T02:41:17;1.30;;;0.30;;
15273;SDS011;7738;49.532;11.156;2022-12-29T02:43:54;1.17;;;0.82;;
15273;SDS011;7738;49.532;11.156;2022-12-29T02:46:33;3.30;;;0.60;;
15273;SDS011;7738;49.532;11.156;2022-12-29T02:49:06;1.60;;;0.85;;
15273;SDS011;7738;49.532;11.156;2022-12-29T02:51:44;1.33;;;0.65;;
15273;SDS011;7738;49.532;11.156;2022-12-29T02:54:19;2.25;;;0.60;;
15273;SDS011;7738;49.532;11.156;2022-12-29T02:57:02;1.50;;;0.63;;
15273;SDS011;7738;49.532;11.156;2022-12-29T02:59:34;1.92;;;0.70;;
15273;SDS011;7738;49.532;11.156;2022-12-29T03:02:14;1.15;;;0.60;;
15273;SDS011;7738;49.532;11.156;2022-12-29T03:05:11;1.92;;;0.57;;
15273;SDS011;7738;49.532;11.156;2022-12-29T03:07:52;1.17;;;0.57;;
15273;SDS011;7738;49.532;11.156;2022-12-29T03:10:30;1.70;;;0.77;;
15273;SDS011;7738;49.532;11.156;2022-12-29T03:13:12;1.95;;;0.90;;
15273;SDS011;7738;49.532;11.156;2022-12-29T03:16:05;1.63;;;0.80;;
15273;SDS011;7738;49.532;11.156;2022-12-29T03:18:49;1.02;;;0.70;;
15273;SDS011;7738;49.532;11.156;2022-12-29T03:21:28;1.52;;;0.63;;
15273;SDS011;7738;49.532;11.156;2022-12-29T03:24:17;1.70;;;0.90;;
15273;SDS011;7738;49.532;11.156;2022-12-29T03:29:23;2.05;;;0.98;;
15273;SDS011;7738;49.532;11.156;2022-12-29T03:31:56;1.80;;;0.70;;
15273;SDS011;7738;49.532;11.156;2022-12-29T03:34:30;0.88;;;0.68;;
15273;SDS011;7738;49.532;11.156;2022-12-29T03:39:36;0.75;;;0.47;;
15273;SDS011;7738;49.532;11.156;2022-12-29T03:42:07;2.08;;;0.73;;
15273;SDS011;7738;49.532;11.156;2022-12-29T03:44:44;2.58;;;0.90;;
15273;SDS011;7738;49.532;11.156;2022-12-29T03:47:15;1.92;;;0.65;;
15273;SDS011;7738;49.532;11.156;2022-12-29T03:49:48;1.23;;;0.70;;
15273;SDS011;7738;49.532;11.156;2022-12-29T03:52:18;0.95;;;0.40;;
15273;SDS011;7738;49.532;11.156;2022-12-29T03:54:51;2.38;;;0.75;;
15273;SDS011;7738;49.532;11.156;2022-12-29T03:57:21;2.00;;;0.68;;
15273;SDS011;7738;49.532;11.156;2022-12-29T03:59:59;1.63;;;0.65;;
15273;SDS011;7738;49.532;11.156;2022-12-29T04:02:29;3.08;;;0.68;;
15273;SDS011;7738;49.532;11.156;2022-12-29T04:05:04;1.73;;;0.90;;
15273;SDS011;7738;49.532;11.156;2022-12-29T04:07:36;1.67;;;0.77;;
15273;SDS011;7738;49.532;11.156;2022-12-29T04:10:07;1.77;;;0.65;;
15273;SDS011;7738;49.532;11.156;2022-12-29T04:12:37;2.17;;;0.60;;
15273;SDS011;7738;49.532;11.156;2022-12-29T04:15:08;1.88;;;0.93;;
15273;SDS011;7738;49.532;11.156;2022-12-29T04:17:39;2.03;;;1.10;;
15273;SDS011;7738;49.532;11.156;2022-12-29T04:20:14;1.13;;;0.50;;
15273;SDS011;7738;49.532;11.156;2022-12-29T04:22:59;1.73;;;0.60;;
15273;SDS011;7738;49.532;11.156;2022-12-29T04:25:30;2.97;;;0.85;;
15273;SDS011;7738;49.532;11.156;2022-12-29T04:28:01;1.77;;;0.63;;
15273;SDS011;7738;49.532;11.156;2022-12-29T04:30:52;3.10;;;0.40;;
15273;SDS011;7738;49.532;11.156;2022-12-29T04:33:31;4.80;;;0.50;;
15273;SDS011;7738;49.532;11.156;2022-12-29T04:36:04;2.50;;;0.50;;
15273;SDS011;7738;49.532;11.156;2022-12-29T04:41:07;1.38;;;0.60;;
15273;SDS011;7738;49.532;11.156;2022-12-29T04:43:38;0.95;;;0.73;;
15273;SDS011;7738;49.532;11.156;2022-12-29T04:46:26;1.90;;;0.93;;
15273;SDS011;7738;49.532;11.156;2022-12-29T04:49:04;1.10;;;0.57;;
15273;SDS011;7738;49.532;11.156;2022-12-29T04:51:53;0.73;;;0.35;;
15273;SDS011;7738;49.532;11.156;2022-12-29T04:54:23;1.00;;;0.52;;
15273;SDS011;7738;49.532;11.156;2022-12-29T04:57:01;1.85;;;0.50;;
15273;SDS011;7738;49.532;11.156;2022-12-29T04:59:33;1.88;;;0.98;;
15273;SDS011;7738;49.532;11.156;2022-12-29T05:02:04;0.95;;;0.60;;
15273;SDS011;7738;49.532;11.156;2022-12-29T05:04:35;1.35;;;0.80;;
15273;SDS011;7738;49.532;11.156;2022-12-29T05:07:08;1.90;;;0.80;;
15273;SDS011;7738;49.532;11.156;2022-12-29T05:09:38;2.03;;;0.85;;
15273;SDS011;7738;49.532;11.156;2022-12-29T05:12:09;1.27;;;0.70;;
15273;SDS011;7738;49.532;11.156;2022-12-29T05:14:49;1.58;;;0.70;;
15273;SDS011;7738;49.532;11.156;2022-12-29T05:17:19;3.95;;;0.75;;
15273;SDS011;7738;49.532;11.156;2022-12-29T05:19:49;1.42;;;0.60;;
15273;SDS011;7738;49.532;11.156;2022-12-29T05:22:22;1.23;;;0.65;;
15273;SDS011;7738;49.532;11.156;2022-12-29T05:24:54;1.48;;;0.63;;
15273;SDS011;7738;49.532;11.156;2022-12-29T05:27:24;1.58;;;0.70;;
15273;SDS011;7738;49.532;11.156;2022-12-29T05:30:06;1.70;;;0.52;;
15273;SDS011;7738;49.532;11.156;2022-12-29T05:35:38;0.90;;;0.50;;
15273;SDS011;7738;49.532;11.156;2022-12-29T05:38:12;2.95;;;0.90;;
15273;SDS011;7738;49.532;11.156;2022-12-29T05:40:44;2.00;;;0.70;;
15273;SDS011;7738;49.532;11.156;2022-12-29T05:43:43;1.67;;;0.73;;
15273;SDS011;7738;49.532;11.156;2022-12-29T05:46:26;4.10;;;0.88;;
15273;SDS011;7738;49.532;11.156;2022-12-29T05:49:06;0.93;;;0.63;;
15273;SDS011;7738;49.532;11.156;2022-12-29T05:52:03;0.82;;;0.65;;
15273;SDS011;7738;49.532;11.156;2022-12-29T05:54:36;1.42;;;0.88;;
15273;SDS011;7738;49.532;11.156;2022-12-29T05:57:12;0.88;;;0.45;;
15273;SDS011;7738;49.532;11.156;2022-12-29T05:59:46;1.50;;;0.98;;
15273;SDS011;7738;49.532;11.156;2022-12-29T06:02:17;0.77;;;0.50;;
15273;SDS011;7738;49.532;11.156;2022-12-29T06:04:47;1.35;;;0.82;;
15273;SDS011;7738;49.532;11.156;2022-12-29T06:07:18;3.17;;;1.92;;
15273;SDS011;7738;49.532;11.156;2022-12-29T06:09:51;2.28;;;1.08;;
15273;SDS011;7738;49.532;11.156;2022-12-29T06:12:22;2.22;;;0.90;;
15273;SDS011;7738;49.532;11.156;2022-12-29T06:14:53;1.52;;;0.88;;
15273;SDS011;7738;49.532;11.156;2022-12-29T06:17:24;4.25;;;1.85;;
15273;SDS011;7738;49.532;11.156;2022-12-29T06:19:54;5.30;;;4.80;;
15273;SDS011;7738;49.532;11.156;2022-12-29T06:22:26;2.33;;;1.38;;
15273;SDS011;7738;49.532;11.156;2022-12-29T06:24:59;4.30;;;1.90;;
15273;SDS011;7738;49.532;11.156;2022-12-29T06:27:32;4.53;;;2.38;;
15273;SDS011;7738;49.532;11.156;2022-12-29T06:30:03;3.33;;;1.50;;
15273;SDS011;7738;49.532;11.156;2022-12-29T06:32:33;4.18;;;2.50;;
15273;SDS011;7738;49.532;11.156;2022-12-29T06:35:13;5.47;;;2.33;;
15273;SDS011;7738;49.532;11.156;2022-12-29T06:37:46;1.67;;;1.38;;
15273;SDS011;7738;49.532;11.156;2022-12-29T06:40:19;4.40;;;0.90;;
15273;SDS011;7738;49.532;11.156;2022-12-29T06:43:13;1.48;;;1.05;;
15273;SDS011;7738;49.532;11.156;2022-12-29T06:46:03;3.65;;;0.80;;
15273;SDS011;7738;49.532;11.156;2022-12-29T06:48:33;2.25;;;1.27;;
15273;SDS011;7738;49.532;11.156;2022-12-29T06:51:04;4.25;;;2.13;;
15273;SDS011;7738;49.532;11.156;2022-12-29T06:53:34;1.95;;;0.95;;
15273;SDS011;7738;49.532;11.156;2022-12-29T06:56:07;2.15;;;1.95;;
15273;SDS011;7738;49.532;11.156;2022-12-29T06:58:37;4.72;;;4.32;;
15273;SDS011;7738;49.532;11.156;2022-12-29T07:01:08;3.42;;;3.10;;
15273;SDS011;7738;49.532;11.156;2022-12-29T07:03:38;2.85;;;1.45;;
15273;SDS011;7738;49.532;11.156;2022-12-29T07:06:11;2.13;;;0.93;;
15273;SDS011;7738;49.532;11.156;2022-12-29T07:08:42;1.13;;;0.60;;
15273;SDS011;7738;49.532;11.156;2022-12-29T07:11:15;2.65;;;1.08;;
15273;SDS011;7738;49.532;11.156;2022-12-29T07:13:45;3.13;;;1.48;;
15273;SDS011;7738;49.532;11.156;2022-12-29T07:16:16;1.13;;;0.50;;
15273;SDS011;7738;49.532;11.156;2022-12-29T07:18:46;2.45;;;1.17;;
15273;SDS011;7738;49.532;11.156;2022-12-29T07:21:18;1.15;;;0.73;;
15273;SDS011;7738;49.532;11.156;2022-12-29T07:23:48;2.80;;;0.90;;
15273;SDS011;7738;49.532;11.156;2022-12-29T07:26:21;1.10;;;0.52;;
15273;SDS011;7738;49.532;11.156;2022-12-29T07:28:59;1.90;;;0.73;;
15273;SDS011;7738;49.532;11.156;2022-12-29T07:31:32;3.08;;;1.35;;
15273;SDS011;7738;49.532;11.156;2022-12-29T07:34:02;2.90;;;1.35;;
15273;SDS011;7738;49.532;11.156;2022-12-29T07:36:33;7.00;;;2.72;;
15273;SDS011;7738;49.532;11.156;2022-12-29T07:39:03;1.52;;;1.02;;
15273;SDS011;7738;49.532;11.156;2022-12-29T07:41:36;2.60;;;0.68;;
15273;SDS011;7738;49.532;11.156;2022-12-29T07:44:10;1.05;;;0.73;;
15273;SDS011;7738;49.532;11.156;2022-12-29T07:46:55;1.27;;;0.60;;
15273;SDS011;7738;49.532;11.156;2022-12-29T07:49:26;2.65;;;0.68;;
15273;SDS011;7738;49.532;11.156;2022-12-29T07:51:56;2.22;;;0.70;;
15273;SDS011;7738;49.532;11.156;2022-12-29T07:54:26;1.00;;;0.70;;
15273;SDS011;7738;49.532;11.156;2022-12-29T07:56:59;3.25;;;1.38;;
15273;SDS011;7738;49.532;11.156;2022-12-29T07:59:30;2.08;;;1.25;;
15273;SDS011;7738;49.532;11.156;2022-12-29T08:02:00;2.88;;;0.70;;
15273;SDS011;7738;49.532;11.156;2022-12-29T08:04:30;3.22;;;0.95;;
15273;SDS011;7738;49.532;11.156;2022-12-29T08:07:01;3.17;;;1.20;;
15273;SDS011;7738;49.532;11.156;2022-12-29T08:09:31;2.20;;;0.80;;
15273;SDS011;7738;49.532;11.156;2022-12-29T08:12:04;1.75;;;0.68;;
15273;SDS011;7738;49.532;11.156;2022-12-29T08:14:34;2.80;;;1.15;;
15273;SDS011;7738;49.532;11.156;2022-12-29T08:17:05;1.92;;;0.60;;
15273;SDS011;7738;49.532;11.156;2022-12-29T08:19:36;2.42;;;0.60;;
15273;SDS011;7738;49.532;11.156;2022-12-29T08:22:09;1.58;;;0.40;;
15273;SDS011;7738;49.532;11.156;2022-12-29T08:24:39;2.17;;;0.90;;
15273;SDS011;7738;49.532;11.156;2022-12-29T08:27:12;4.15;;;0.70;;
15273;SDS011;7738;49.532;11.156;2022-12-29T08:29:46;2.78;;;1.27;;
15273;SDS011;7738;49.532;11.156;2022-12-29T08:32:17;1.65;;;0.70;;
15273;SDS011;7738;49.532;11.156;2022-12-29T08:34:51;2.72;;;0.70;;
15273;SDS011;7738;49.532;11.156;2022-12-29T08:37:21;2.88;;;0.77;;
15273;SDS011;7738;49.532;11.156;2022-12-29T08:39:56;1.95;;;1.02;;
15273;SDS011;7738;49.532;11.156;2022-12-29T08:42:33;2.55;;;0.70;;
15273;SDS011;7738;49.532;11.156;2022-12-29T08:45:03;2.38;;;0.60;;
15273;SDS011;7738;49.532;11.156;2022-12-29T08:47:35;2.20;;;0.80;;
15273;SDS011;7738;49.532;11.156;2022-12-29T08:50:06;1.02;;;0.70;;
15273;SDS011;7738;49.532;11.156;2022-12-29T08:52:36;2.10;;;0.80;;
15273;SDS011;7738;49.532;11.156;2022-12-29T08:55:07;2.40;;;0.60;;
15273;SDS011;7738;49.532;11.156;2022-12-29T08:57:40;2.50;;;0.95;;
15273;SDS011;7738;49.532;11.156;2022-12-29T09:00:15;0.70;;;0.45;;
15273;SDS011;7738;49.532;11.156;2022-12-29T09:02:46;1.25;;;0.40;;
15273;SDS011;7738;49.532;11.156;2022-12-29T09:05:17;2.55;;;1.17;;
15273;SDS011;7738;49.532;11.156;2022-12-29T09:07:47;4.03;;;1.58;;
15273;SDS011;7738;49.532;11.156;2022-12-29T09:10:17;2.40;;;0.70;;
15273;SDS011;7738;49.532;11.156;2022-12-29T09:12:51;2.30;;;0.93;;
15273;SDS011;7738;49.532;11.156;2022-12-29T09:15:21;3.80;;;1.25;;
15273;SDS011;7738;49.532;11.156;2022-12-29T09:17:52;3.88;;;0.77;;
15273;SDS011;7738;49.532;11.156;2022-12-29T09:20:22;1.85;;;0.90;;
15273;SDS011;7738;49.532;11.156;2022-12-29T09:22:52;1.85;;;1.00;;
15273;SDS011;7738;49.532;11.156;2022-12-29T09:25:23;1.90;;;0.68;;
15273;SDS011;7738;49.532;11.156;2022-12-29T09:27:56;1.63;;;0.95;;
15273;SDS011;7738;49.532;11.156;2022-12-29T09:30:30;2.03;;;0.80;;
15273;SDS011;7738;49.532;11.156;2022-12-29T09:33:00;1.50;;;0.43;;
15273;SDS011;7738;49.532;11.156;2022-12-29T09:35:30;1.23;;;0.77;;
15273;SDS011;7738;49.532;11.156;2022-12-29T09:38:01;3.05;;;0.60;;
15273;SDS011;7738;49.532;11.156;2022-12-29T09:40:31;1.13;;;0.60;;
15273;SDS011;7738;49.532;11.156;2022-12-29T09:43:12;2.47;;;0.60;;
15273;SDS011;7738;49.532;11.156;2022-12-29T09:46:02;2.80;;;0.50;;
15273;SDS011;7738;49.532;11.156;2022-12-29T09:48:36;1.65;;;0.75;;
15273;SDS011;7738;49.532;11.156;2022-12-29T09:51:08;1.60;;;0.60;;
15273;SDS011;7738;49.532;11.156;2022-12-29T09:53:41;1.92;;;0.60;;
15273;SDS011;7738;49.532;11.156;2022-12-29T09:56:15;4.40;;;0.80;;
15273;SDS011;7738;49.532;11.156;2022-12-29T09:58:49;1.83;;;0.80;;
15273;SDS011;7738;49.532;11.156;2022-12-29T10:01:23;1.88;;;0.70;;
15273;SDS011;7738;49.532;11.156;2022-12-29T10:04:01;3.10;;;0.75;;
15273;SDS011;7738;49.532;11.156;2022-12-29T10:06:33;5.68;;;0.80;;
15273;SDS011;7738;49.532;11.156;2022-12-29T10:09:29;1.98;;;0.70;;
15273;SDS011;7738;49.532;11.156;2022-12-29T10:12:12;1.52;;;0.52;;
15273;SDS011;7738;49.532;11.156;2022-12-29T10:14:58;1.92;;;0.75;;
15273;SDS011;7738;49.532;11.156;2022-12-29T10:17:35;2.45;;;0.60;;
15273;SDS011;7738;49.532;11.156;2022-12-29T10:20:18;1.85;;;0.77;;
15273;SDS011;7738;49.532;11.156;2022-12-29T10:22:58;2.55;;;0.63;;
15273;SDS011;7738;49.532;11.156;2022-12-29T10:25:39;4.30;;;1.63;;
15273;SDS011;7738;49.532;11.156;2022-12-29T10:28:15;2.85;;;1.13;;
15273;SDS011;7738;49.532;11.156;2022-12-29T10:30:49;2.38;;;1.77;;
15273;SDS011;7738;49.532;11.156;2022-12-29T10:33:22;3.97;;;2.08;;
15273;SDS011;7738;49.532;11.156;2022-12-29T10:35:55;2.97;;;1.80;;
15273;SDS011;7738;49.532;11.156;2022-12-29T10:38:27;3.58;;;1.23;;
15273;SDS011;7738;49.532;11.156;2022-12-29T10:41:05;3.25;;;1.60;;
15273;SDS011;7738;49.532;11.156;2022-12-29T10:43:43;8.32;;;4.20;;
15273;SDS011;7738;49.532;11.156;2022-12-29T10:46:18;5.00;;;2.65;;
15273;SDS011;7738;49.532;11.156;2022-12-29T10:48:51;13.27;;;8.13;;
15273;SDS011;7738;49.532;11.156;2022-12-29T10:51:21;3.70;;;2.17;;
15273;SDS011;7738;49.532;11.156;2022-12-29T10:53:53;2.75;;;2.47;;
15273;SDS011;7738;49.532;11.156;2022-12-29T10:56:30;3.42;;;1.80;;
15273;SDS011;7738;49.532;11.156;2022-12-29T10:59:07;3.45;;;2.28;;
15273;SDS011;7738;49.532;11.156;2022-12-29T11:01:49;7.38;;;2.20;;
15273;SDS011;7738;49.532;11.156;2022-12-29T11:04:34;6.82;;;2.55;;
15273;SDS011;7738;49.532;11.156;2022-12-29T11:07:05;3.92;;;2.13;;
15273;SDS011;7738;49.532;11.156;2022-12-29T11:09:41;4.97;;;1.42;;
15273;SDS011;7738;49.532;11.156;2022-12-29T11:12:21;4.53;;;1.80;;
15273;SDS011;7738;49.532;11.156;2022-12-29T11:15:01;2.25;;;1.02;;
15273;SDS011;7738;49.532;11.156;2022-12-29T11:17:46;4.65;;;2.25;;
15273;SDS011;7738;49.532;11.156;2022-12-29T11:20:28;2.78;;;1.60;;
15273;SDS011;7738;49.532;11.156;2022-12-29T11:23:02;5.47;;;2.42;;
15273;SDS011;7738;49.532;11.156;2022-12-29T11:25:33;3.72;;;2.13;;
15273;SDS011;7738;49.532;11.156;2022-12-29T11:28:14;6.85;;;2.95;;
15273;SDS011;7738;49.532;11.156;2022-12-29T11:30:45;4.72;;;2.47;;
15273;SDS011;7738;49.532;11.156;2022-12-29T11:33:32;4.47;;;2.97;;
15273;SDS011;7738;49.532;11.156;2022-12-29T11:36:05;4.32;;;1.60;;
15273;SDS011;7738;49.532;11.156;2022-12-29T11:38:40;3.50;;;1.52;;
15273;SDS011;7738;49.532;11.156;2022-12-29T11:41:12;3.80;;;1.80;;
15273;SDS011;7738;49.532;11.156;2022-12-29T11:43:48;3.83;;;1.58;;
15273;SDS011;7738;49.532;11.156;2022-12-29T11:46:19;2.85;;;1.30;;
15273;SDS011;7738;49.532;11.156;2022-12-29T11:48:55;6.88;;;1.02;;
15273;SDS011;7738;49.532;11.156;2022-12-29T11:51:28;2.95;;;0.93;;
15273;SDS011;7738;49.532;11.156;2022-12-29T11:54:00;3.92;;;1.55;;
15273;SDS011;7738;49.532;11.156;2022-12-29T11:56:34;4.95;;;1.60;;
15273;SDS011;7738;49.532;11.156;2022-12-29T12:02:20;8.98;;;4.65;;
15273;SDS011;7738;49.532;11.156;2022-12-29T12:05:13;1.20;;;0.70;;
15273;SDS011;7738;49.532;11.156;2022-12-29T12:07:52;3.65;;;1.88;;
15273;SDS011;7738;49.532;11.156;2022-12-29T12:10:27;2.13;;;0.70;;
15273;SDS011;7738;49.532;11.156;2022-12-29T12:13:05;2.42;;;1.42;;
15273;SDS011;7738;49.532;11.156;2022-12-29T12:15:49;4.40;;;1.20;;
15273;SDS011;7738;49.532;11.156;2022-12-29T12:18:28;1.42;;;0.70;;
15273;SDS011;7738;49.532;11.156;2022-12-29T12:21:08;1.77;;;0.60;;
15273;SDS011;7738;49.532;11.156;2022-12-29T12:23:56;3.33;;;1.20;;
15273;SDS011;7738;49.532;11.156;2022-12-29T12:26:48;2.65;;;1.20;;
15273;SDS011;7738;49.532;11.156;2022-12-29T12:29:31;1.77;;;0.98;;
15273;SDS011;7738;49.532;11.156;2022-12-29T12:32:10;2.13;;;0.65;;
15273;SDS011;7738;49.532;11.156;2022-12-29T12:34:45;1.15;;;0.70;;
15273;SDS011;7738;49.532;11.156;2022-12-29T12:37:29;5.60;;;1.15;;
15273;SDS011;7738;49.532;11.156;2022-12-29T12:40:17;3.47;;;1.10;;
15273;SDS011;7738;49.532;11.156;2022-12-29T12:43:19;4.20;;;2.80;;
15273;SDS011;7738;49.532;11.156;2022-12-29T12:46:08;6.35;;;3.95;;
15273;SDS011;7738;49.532;11.156;2022-12-29T12:48:52;3.85;;;3.13;;
15273;SDS011;7738;49.532;11.156;2022-12-29T12:51:37;3.67;;;1.38;;
15273;SDS011;7738;49.532;11.156;2022-12-29T12:54:23;4.68;;;3.33;;
15273;SDS011;7738;49.532;11.156;2022-12-29T12:57:06;2.75;;;1.50;;
15273;SDS011;7738;49.532;11.156;2022-12-29T12:59:46;3.90;;;1.45;;
15273;SDS011;7738;49.532;11.156;2022-12-29T13:02:28;6.07;;;1.88;;
15273;SDS011;7738;49.532;11.156;2022-12-29T13:05:21;5.53;;;0.95;;
15273;SDS011;7738;49.532;11.156;2022-12-29T13:08:01;5.22;;;2.65;;
15273;SDS011;7738;49.532;11.156;2022-12-29T13:10:50;8.25;;;3.90;;
15273;SDS011;7738;49.532;11.156;2022-12-29T13:16:34;2.88;;;0.90;;
15273;SDS011;7738;49.532;11.156;2022-12-29T13:19:14;1.98;;;0.90;;
15273;SDS011;7738;49.532;11.156;2022-12-29T13:21:56;1.52;;;0.98;;
15273;SDS011;7738;49.532;11.156;2022-12-29T13:24:35;4.40;;;1.50;;
15273;SDS011;7738;49.532;11.156;2022-12-29T13:27:20;2.80;;;1.05;;
15273;SDS011;7738;49.532;11.156;2022-12-29T13:30:03;2.05;;;0.88;;
15273;SDS011;7738;49.532;11.156;2022-12-29T13:32:43;3.28;;;1.08;;
15273;SDS011;7738;49.532;11.156;2022-12-29T13:35:31;3.47;;;1.25;;
15273;SDS011;7738;49.532;11.156;2022-12-29T13:38:18;2.10;;;1.38;;
15273;SDS011;7738;49.532;11.156;2022-12-29T13:40:53;1.70;;;1.08;;
15273;SDS011;7738;49.532;11.156;2022-12-29T13:43:28;4.03;;;0.70;;
15273;SDS011;7738;49.532;11.156;2022-12-29T13:46:02;3.28;;;1.02;;
15273;SDS011;7738;49.532;11.156;2022-12-29T13:48:38;2.47;;;1.20;;
15273;SDS011;7738;49.532;11.156;2022-12-29T13:51:12;3.42;;;1.00;;
15273;SDS011;7738;49.532;11.156;2022-12-29T13:54:00;3.28;;;1.30;;
15273;SDS011;7738;49.532;11.156;2022-12-29T13:56:38;1.98;;;0.55;;
15273;SDS011;7738;49.532;11.156;2022-12-29T13:59:14;2.40;;;1.65;;
15273;SDS011;7738;49.532;11.156;2022-12-29T14:01:52;7.43;;;2.45;;
15273;SDS011;7738;49.532;11.156;2022-12-29T14:04:27;6.25;;;2.08;;
15273;SDS011;7738;49.532;11.156;2022-12-29T14:07:01;2.50;;;1.75;;
15273;SDS011;7738;49.532;11.156;2022-12-29T14:09:39;1.40;;;1.08;;
15273;SDS011;7738;49.532;11.156;2022-12-29T14:12:21;3.60;;;1.40;;
15273;SDS011;7738;49.532;11.156;2022-12-29T14:18:02;3.13;;;1.73;;
15273;SDS011;7738;49.532;11.156;2022-12-29T14:20:35;2.38;;;1.13;;
15273;SDS011;7738;49.532;11.156;2022-12-29T14:23:16;3.17;;;1.45;;
15273;SDS011;7738;49.532;11.156;2022-12-29T14:25:59;3.45;;;1.60;;
15273;SDS011;7738;49.532;11.156;2022-12-29T14:28:40;4.63;;;1.52;;
15273;SDS011;7738;49.532;11.156;2022-12-29T14:34:25;4.20;;;2.05;;
15273;SDS011;7738;49.532;11.156;2022-12-29T14:36:58;9.02;;;4.20;;
15273;SDS011;7738;49.532;11.156;2022-12-29T14:39:37;12.25;;;6.97;;
15273;SDS011;7738;49.532;11.156;2022-12-29T14:42:11;4.70;;;3.03;;
15273;SDS011;7738;49.532;11.156;2022-12-29T14:44:45;8.60;;;4.10;;
15273;SDS011;7738;49.532;11.156;2022-12-29T14:47:21;10.10;;;5.70;;
15273;SDS011;7738;49.532;11.156;2022-12-29T14:49:58;5.90;;;3.42;;
15273;SDS011;7738;49.532;11.156;2022-12-29T14:52:34;6.32;;;3.28;;
15273;SDS011;7738;49.532;11.156;2022-12-29T14:58:06;8.60;;;2.90;;
15273;SDS011;7738;49.532;11.156;2022-12-29T15:00:43;5.55;;;1.73;;
15273;SDS011;7738;49.532;11.156;2022-12-29T15:03:20;3.53;;;1.75;;
15273;SDS011;7738;49.532;11.156;2022-12-29T15:05:53;4.88;;;2.03;;
15273;SDS011;7738;49.532;11.156;2022-12-29T15:08:32;6.00;;;3.53;;
15273;SDS011;7738;49.532;11.156;2022-12-29T15:11:09;4.80;;;1.40;;
15273;SDS011;7738;49.532;11.156;2022-12-29T15:13:43;2.75;;;1.08;;
15273;SDS011;7738;49.532;11.156;2022-12-29T15:16:23;3.55;;;1.73;;
15273;SDS011;7738;49.532;11.156;2022-12-29T15:18:57;5.40;;;1.92;;
15273;SDS011;7738;49.532;11.156;2022-12-29T15:21:28;2.33;;;1.75;;
15273;SDS011;7738;49.532;11.156;2022-12-29T15:24:00;2.28;;;1.17;;
15273;SDS011;7738;49.532;11.156;2022-12-29T15:26:36;6.22;;;2.63;;
15273;SDS011;7738;49.532;11.156;2022-12-29T15:29:26;5.35;;;1.85;;
15273;SDS011;7738;49.532;11.156;2022-12-29T15:31:59;3.00;;;1.80;;
15273;SDS011;7738;49.532;11.156;2022-12-29T15:34:41;2.53;;;1.02;;
15273;SDS011;7738;49.532;11.156;2022-12-29T15:37:14;4.55;;;2.35;;
15273;SDS011;7738;49.532;11.156;2022-12-29T15:39:50;9.88;;;5.32;;
15273;SDS011;7738;49.532;11.156;2022-12-29T15:42:25;9.13;;;5.10;;
15273;SDS011;7738;49.532;11.156;2022-12-29T15:45:18;4.75;;;2.35;;
15273;SDS011;7738;49.532;11.156;2022-12-29T15:47:49;6.78;;;3.17;;
15273;SDS011;7738;49.532;11.156;2022-12-29T15:50:26;4.45;;;2.50;;
15273;SDS011;7738;49.532;11.156;2022-12-29T15:52:59;3.72;;;2.10;;
15273;SDS011;7738;49.532;11.156;2022-12-29T15:55:30;19.65;;;9.32;;
15273;SDS011;7738;49.532;11.156;2022-12-29T15:58:03;9.23;;;4.95;;
15273;SDS011;7738;49.532;11.156;2022-12-29T16:00:47;6.57;;;3.85;;
15273;SDS011;7738;49.532;11.156;2022-12-29T16:03:19;6.47;;;2.83;;
15273;SDS011;7738;49.532;11.156;2022-12-29T16:05:55;17.40;;;8.00;;
15273;SDS011;7738;49.532;11.156;2022-12-29T16:08:36;43.63;;;15.05;;
15273;SDS011;7738;49.532;11.156;2022-12-29T16:11:18;18.65;;;5.88;;